Terminal Aerodrome Forecast
Issued by NWS

Home | Current Version | Previous Version | Text Only | Print | Product List | Glossary On
Versions: 1 2 3 4 5 6 7 8 9 10 11 12 13 14 15 16 17 18 19 20 21 22 23 24 25 26 27 28 29
000
FTUS44 KCRP 051700
TAFALI
TAF
KALI 051728Z 0518/0618 36018G26KT P6SM OVC025
      TEMPO 0519/0521 SCT025 OVC080
     FM052100 35016G21KT P6SM SCT020 BKN070
     FM060100 01012KT P6SM FEW011 SCT020 BKN080
     FM060900 02010KT P6SM SCT100 BKN250=

USA.gov is the U.S. government's official web portal to all federal, state and local government web resources and services.